Time;durP1;ratioP1;P1;durP2;ratioP2;P2;SDS_P1;SDS_P2;PMS_P1;PMS_P2;Temp;Humidity;BMP_temperature;BMP_pressure;BME280_temperature;BME280_humidity;BME280_pressure;Samples;Min_cycle;Max_cycle;Signal;HPM_P1;HPM_P2
2022/03/12 00:00:57;;;;;;;11.50;6.20;;;;;;;-3.29;85.65;100318.34;10538528;28;20040;-76
2022/03/12 00:05:59;;;;;;;11.55;6.00;;;;;;;-2.88;85.15;100380.25;10537435;28;20040;-76
2022/03/12 00:11:03;;;;;;;9.40;5.47;;;;;;;-2.13;85.15;100500.25;10536755;28;20072;-76
2022/03/12 00:16:08;;;;;;;11.47;5.77;;;;;;;-2.85;85.25;100400.88;10537412;28;20048;-75
2022/03/12 00:21:12;;;;;;;10.05;5.63;;;;;;;-2.44;85.26;100493.25;10538192;28;20281;-75
2022/03/12 00:26:15;;;;;;;9.07;5.65;;;;;;;-2.32;85.53;100524.66;10544829;28;20040;-76
2022/03/12 00:31:16;;;;;;;9.70;5.88;;;;;;;-2.32;85.82;100522.06;10545328;28;20213;-76
2022/03/12 00:36:17;;;;;;;8.60;5.43;;;;;;;-2.17;85.48;100537.78;10544768;28;20047;-76
2022/03/12 00:41:18;;;;;;;9.45;5.20;;;;;;;-2.36;85.96;100533.56;10544925;28;20114;-76
2022/03/12 00:46:20;;;;;;;10.50;6.03;;;;;;;-3.16;85.66;100382.66;10544620;28;20075;-76
2022/03/12 00:51:20;;;;;;;8.05;5.45;;;;;;;-2.47;85.32;100511.63;10543315;28;20040;-76
2022/03/12 00:56:21;;;;;;;10.15;5.95;;;;;;;-2.34;86.07;100544.69;10543587;28;20040;-75
2022/03/12 01:01:23;;;;;;;10.27;5.63;;;;;;;-2.36;86.27;100561.34;10542926;28;20058;-75
2022/03/12 01:06:24;;;;;;;10.75;5.60;;;;;;;-2.84;85.41;100498.78;10543014;28;20411;-76
2022/03/12 01:11:25;;;;;;;11.48;6.15;;;;;;;-2.53;86.36;100570.84;10543070;28;20051;-75
2022/03/12 01:16:25;;;;;;;10.50;5.85;;;;;;;-2.80;86.57;100536.69;10542925;28;20046;-76
2022/03/12 01:21:26;;;;;;;10.70;5.72;;;;;;;-3.28;86.62;100481.06;10542371;28;20123;-76
2022/03/12 01:26:27;;;;;;;12.02;6.10;;;;;;;-3.23;85.92;100486.03;10543643;28;20047;-76
2022/03/12 01:31:28;;;;;;;10.13;5.88;;;;;;;-2.51;86.13;100594.19;10542692;28;20032;-75
2022/03/12 01:36:30;;;;;;;10.60;6.60;;;;;;;-2.72;86.17;100564.91;10542255;28;20047;-75
2022/03/12 01:41:33;;;;;;;10.65;6.43;;;;;;;-3.57;86.15;100429.72;10541374;28;20032;-76
2022/03/12 01:46:42;;;;;;;11.97;6.97;;;;;;;-2.57;86.04;100613.53;10542256;28;20139;-76
2022/03/12 01:51:45;;;;;;;11.20;6.07;;;;;;;-3.46;85.78;100453.41;10541672;28;20289;-76
2022/03/12 01:56:46;;;;;;;11.05;6.18;;;;;;;-3.29;85.78;100489.78;10542033;28;20050;-75
2022/03/12 02:01:54;;;;;;;10.40;5.65;;;;;;;-3.39;86.04;100479.91;10542265;28;20126;-75
2022/03/12 02:06:58;;;;;;;8.43;5.35;;;;;;;-2.71;85.79;100596.94;10540462;28;20047;-75
2022/03/12 02:11:59;;;;;;;9.02;5.82;;;;;;;-3.06;85.85;100568.34;10545567;28;20525;-75
2022/03/12 02:17:05;;;;;;;11.38;5.82;;;;;;;-2.70;86.21;100611.63;10538389;28;20127;-76
2022/03/12 02:22:09;;;;;;;11.88;6.40;;;;;;;-2.73;86.43;100609.19;10552511;28;20080;-75
2022/03/12 02:27:10;;;;;;;10.50;5.93;;;;;;;-2.60;85.53;100642.31;10540053;28;20044;-75
2022/03/12 02:32:13;;;;;;;8.85;5.32;;;;;;;-4.05;85.36;100413.03;10540675;28;20403;-75
2022/03/12 02:37:28;;;;;;;11.10;6.13;;;;;;;-2.63;85.50;100663.28;10539743;28;20182;-75
2022/03/12 02:42:29;;;;;;;9.07;5.57;;;;;;;-2.72;85.29;100657.66;10540086;28;20177;-74
2022/03/12 02:47:32;;;;;;;12.75;6.55;;;;;;;-2.76;85.00;100673.41;10539181;28;20197;-75
2022/03/12 02:52:41;;;;;;;10.40;6.10;;;;;;;-3.25;85.25;100602.19;10539029;28;20040;-75
2022/03/12 02:57:44;;;;;;;9.20;5.57;;;;;;;-2.95;85.20;100667.44;10547144;28;20491;-75
2022/03/12 03:02:53;;;;;;;67.07;36.93;;;;;;;-4.10;85.02;100466.88;10539421;28;20048;-75
2022/03/12 03:07:56;;;;;;;11.38;6.80;;;;;;;-2.95;84.93;100680.44;10538832;28;20035;-75
2022/03/12 03:12:58;;;;;;;11.07;6.75;;;;;;;-3.52;84.96;100601.75;10538417;28;20036;-75
2022/03/12 03:18:10;;;;;;;10.55;5.75;;;;;;;-2.94;85.03;100700.31;10537843;28;20040;-75
2022/03/12 03:23:12;;;;;;;11.07;6.50;;;;;;;-3.05;84.89;100723.34;10538597;28;20044;-75
2022/03/12 03:28:13;;;;;;;10.73;6.45;;;;;;;-3.01;85.82;100730.94;10538127;28;20093;-75
2022/03/12 03:33:17;;;;;;;9.70;5.95;;;;;;;-2.90;85.65;100716.59;10536430;28;20089;-75
2022/03/12 03:38:18;;;;;;;10.95;6.55;;;;;;;-2.96;85.20;100719.47;10537150;28;20097;-74
2022/03/12 03:43:22;;;;;;;11.13;6.65;;;;;;;-3.50;85.11;100639.72;10538370;28;20051;-75
2022/03/12 03:48:24;;;;;;;11.57;6.20;;;;;;;-3.31;84.67;100660.47;10538556;28;20043;-75
2022/03/12 03:53:26;;;;;;;10.93;6.65;;;;;;;-2.91;84.88;100746.94;10538165;28;20566;-75
2022/03/12 03:58:28;;;;;;;11.80;6.03;;;;;;;-3.74;84.67;100612.25;10541632;28;20044;-75
2022/03/12 04:03:33;;;;;;;10.65;6.22;;;;;;;-2.81;84.67;100748.22;10545869;28;20036;-75
2022/03/12 04:08:35;;;;;;;9.27;5.78;;;;;;;-2.82;84.20;100751.72;10545094;28;20048;-75
2022/03/12 04:13:36;;;;;;;12.43;6.93;;;;;;;-3.83;84.02;100597.94;10545804;28;20127;-75
2022/03/12 04:18:38;;;;;;;12.02;6.82;;;;;;;-2.87;83.49;100764.09;10545266;28;20036;-75
2022/03/12 04:23:39;;;;;;;9.10;6.03;;;;;;;-3.15;83.71;100742.91;10545174;28;20052;-74
2022/03/12 04:28:40;;;;;;;9.18;5.60;;;;;;;-3.93;83.42;100615.69;10545114;28;20406;-75
2022/03/12 04:33:41;;;;;;;12.15;6.65;;;;;;;-3.27;83.37;100726.13;10545525;28;20046;-75
2022/03/12 04:38:41;;;;;;;11.00;5.80;;;;;;;-3.18;83.36;100741.28;10543615;28;20066;-76
2022/03/12 04:43:42;;;;;;;9.70;6.28;;;;;;;-3.13;83.00;100741.09;10566480;28;20503;-75
2022/03/12 04:48:43;;;;;;;11.18;6.35;;;;;;;-3.09;82.77;100753.00;10574652;28;20048;-75
2022/03/12 04:53:44;;;;;;;9.93;6.18;;;;;;;-2.91;82.36;100756.50;10571580;28;20049;-76
2022/03/12 04:58:46;;;;;;;11.98;6.53;;;;;;;-2.76;82.27;100760.97;10569835;28;20048;-74
2022/03/12 05:03:47;;;;;;;14.60;6.30;;;;;;;-3.54;81.83;100627.75;10563551;28;20054;-75
2022/03/12 05:08:48;;;;;;;11.98;6.50;;;;;;;-3.44;81.37;100641.16;10570910;28;20073;-75
2022/03/12 05:13:52;;;;;;;11.15;6.30;;;;;;;-3.99;81.33;100552.84;10571529;28;20444;-75
2022/03/12 05:18:56;;;;;;;;;;;;;;;-2.27;81.58;100799.41;10569627;28;20043;-75
2022/03/12 05:23:56;;;;;;;11.77;6.25;;;;;;;-2.26;80.85;100795.91;10567735;28;19930;-75
2022/03/12 05:28:57;;;;;;;10.80;6.20;;;;;;;-2.35;80.20;100800.63;10570588;28;20066;-75
2022/03/12 05:33:58;;;;;;;9.38;5.32;;;;;;;-2.61;80.38;100765.44;10569979;28;20044;-74
2022/03/12 05:38:59;;;;;;;10.30;6.47;;;;;;;-3.24;80.68;100625.47;10557002;28;20047;-76
2022/03/12 05:44:00;;;;;;;12.52;6.60;;;;;;;-2.43;79.89;100737.69;10565154;28;20500;-75
2022/03/12 05:49:03;;;;;;;12.85;6.68;;;;;;;-2.32;79.14;100742.38;10567576;28;20063;-74
2022/03/12 05:54:05;;;;;;;14.10;5.88;;;;;;;-2.39;78.82;100707.19;10547433;28;20051;-75
2022/03/12 05:59:07;;;;;;;11.25;6.68;;;;;;;-2.03;78.80;100756.56;10569735;28;20040;-75
2022/03/12 06:04:10;;;;;;;14.75;6.88;;;;;;;-1.69;78.84;100784.31;10551326;28;20067;-74
2022/03/12 06:09:11;;;;;;;23.30;11.57;;;;;;;-2.17;78.76;100681.75;10567715;28;20036;-74
2022/03/12 06:14:15;;;;;;;9.85;6.30;;;;;;;-1.58;77.73;100738.66;10568502;28;20486;-75
2022/03/12 06:19:19;;;;;;;9.32;5.65;;;;;;;-1.26;77.43;100778.63;10566658;28;20047;-75
2022/03/12 06:24:20;;;;;;;11.18;5.75;;;;;;;-0.94;77.04;100801.19;10569948;28;20092;-75
2022/03/12 06:29:21;;;;;;;9.40;5.97;;;;;;;-1.06;76.61;100788.81;10552902;28;20048;-76
2022/03/12 06:34:22;;;;;;;11.48;6.32;;;;;;;-1.03;76.12;100804.31;10538904;28;20036;-82
2022/03/12 06:39:23;;;;;;;9.52;6.10;;;;;;;-0.83;75.82;100784.13;10550640;28;20067;-77
2022/03/12 06:44:31;;;;;;;9.25;6.25;;;;;;;-1.23;75.80;100682.00;10539070;28;20081;-71
2022/03/12 06:49:32;;;;;;;8.18;5.57;;;;;;;-0.67;74.76;100795.38;10539247;28;20054;-76
2022/03/12 06:54:33;;;;;;;10.27;5.60;;;;;;;-0.77;74.82;100760.31;10539729;28;20050;-77
2022/03/12 06:59:34;;;;;;;9.30;5.90;;;;;;;-0.84;73.78;100785.88;10554025;28;20376;-76
2022/03/12 07:04:35;;;;;;;11.65;6.43;;;;;;;-0.94;73.85;100784.72;10567922;28;20051;-76
2022/03/12 07:09:37;;;;;;;8.35;5.18;;;;;;;-0.68;73.58;100801.53;10574791;28;20035;-75
2022/03/12 07:14:38;;;;;;;9.75;5.38;;;;;;;-0.81;73.58;100743.97;10580913;28;20126;-75
2022/03/12 07:19:39;;;;;;;10.07;5.63;;;;;;;-0.85;73.01;100711.16;10580504;28;20130;-76
2022/03/12 07:24:40;;;;;;;8.52;6.15;;;;;;;-0.93;72.61;100697.72;10580083;28;20550;-75
2022/03/12 07:29:41;;;;;;;14.60;6.13;;;;;;;-0.03;73.07;100775.22;10579015;28;20505;-75
2022/03/12 07:34:42;;;;;;;10.13;5.88;;;;;;;0.21;71.48;100779.03;10579193;28;20054;-75
2022/03/12 07:39:42;;;;;;;11.30;6.47;;;;;;;-0.07;71.33;100708.44;10579679;28;20065;-75
2022/03/12 07:44:43;;;;;;;8.68;5.15;;;;;;;0.19;71.38;100787.88;10580188;28;20142;-75
2022/03/12 07:49:44;;;;;;;10.13;6.13;;;;;;;-0.14;71.60;100757.56;10579208;28;20487;-77
2022/03/12 07:54:45;;;;;;;10.90;5.90;;;;;;;-0.68;71.61;100665.88;10572506;28;20043;-77
2022/03/12 07:59:46;;;;;;;9.63;6.05;;;;;;;0.20;72.45;100800.84;10578679;28;20043;-75
2022/03/12 08:04:47;;;;;;;9.60;5.72;;;;;;;-0.02;71.54;100801.25;10555047;28;20035;-76
2022/03/12 08:09:55;;;;;;;11.43;6.35;;;;;;;-0.03;72.06;100804.81;10579280;28;20043;-76
2022/03/12 08:14:58;;;;;;;10.45;6.18;;;;;;;-0.27;71.99;100782.69;10578369;28;20122;-75
2022/03/12 08:19:58;;;;;;;10.40;6.28;;;;;;;-0.19;72.18;100798.78;10578747;28;20124;-75
2022/03/12 08:24:59;;;;;;;9.00;6.32;;;;;;;-0.46;72.68;100738.53;10578909;28;20447;-74
2022/03/12 08:30:00;;;;;;;9.40;5.90;;;;;;;-0.64;71.98;100716.09;10578244;28;20092;-77
2022/03/12 08:35:05;;;;;;;11.02;6.32;;;;;;;-0.04;72.04;100810.09;10578578;28;20040;-76
2022/03/12 08:40:06;;;;;;;;;;;;;;;0.28;72.31;100797.78;10579213;28;20077;-76
2022/03/12 08:45:08;;;;;;;10.73;6.47;;;;;;;-0.01;71.00;100796.88;10583739;28;20348;-76
2022/03/12 08:50:09;;;;;;;8.73;5.30;;;;;;;-0.10;71.12;100772.13;10585442;28;20103;-76
2022/03/12 08:55:11;;;;;;;10.05;6.38;;;;;;;-0.21;71.76;100769.28;10585697;28;20065;-75
2022/03/12 09:00:14;;;;;;;9.35;6.22;;;;;;;-0.24;71.40;100786.00;10585723;28;20396;-76
2022/03/12 09:05:15;;;;;;;9.50;6.07;;;;;;;-0.50;70.55;100763.16;10567608;28;20044;-76
2022/03/12 09:10:16;;;;;;;9.32;6.65;;;;;;;-0.90;70.70;100709.75;10585125;28;20103;-76
2022/03/12 09:15:21;;;;;;;11.35;5.80;;;;;;;-0.25;71.32;100820.84;10584408;28;20460;-75
2022/03/12 09:20:22;;;;;;;11.38;6.72;;;;;;;-0.23;71.62;100818.16;10585488;28;20035;-76
2022/03/12 09:25:23;;;;;;;11.32;6.57;;;;;;;-0.97;71.48;100691.84;10584639;28;20043;-76
2022/03/12 09:30:25;;;;;;;9.85;6.43;;;;;;;-0.18;71.84;100797.88;10584295;28;20554;-75
2022/03/12 09:35:26;;;;;;;11.48;7.18;;;;;;;-0.80;71.28;100654.38;10583525;28;20075;-76
2022/03/12 09:40:27;;;;;;;14.60;6.97;;;;;;;-0.29;70.32;100717.53;10584025;28;20063;-77
2022/03/12 09:45:28;;;;;;;9.15;6.57;;;;;;;0.17;71.11;100802.78;10583489;28;20048;-76
2022/03/12 09:50:29;;;;;;;9.27;5.68;;;;;;;-0.24;69.92;100733.78;10584033;28;20443;-77
2022/03/12 09:55:30;;;;;;;13.07;6.78;;;;;;;-0.48;71.14;100719.50;10582655;28;20133;-77
2022/03/12 10:00:31;;;;;;;8.20;6.05;;;;;;;-0.05;70.40;100796.22;10564456;28;20035;-76
2022/03/12 10:05:34;;;;;;;11.77;6.72;;;;;;;-0.26;71.34;100784.41;10582319;28;20126;-77
2022/03/12 10:10:35;;;;;;;10.68;6.72;;;;;;;-0.09;71.16;100788.63;10582198;28;20495;-77
2022/03/12 10:15:36;;;;;;;11.95;7.05;;;;;;;-0.16;71.39;100796.00;10582435;28;20100;-76
2022/03/12 10:20:37;;;;;;;10.48;6.78;;;;;;;-0.54;70.81;100725.94;10581689;28;20035;-76
2022/03/12 10:25:39;;;;;;;12.73;7.65;;;;;;;0.04;70.70;100775.72;10582187;28;20048;-76
2022/03/12 10:30:40;;;;;;;11.20;6.10;;;;;;;-0.27;69.64;100693.94;10563304;28;20054;-76
2022/03/12 10:35:40;;;;;;;15.25;7.32;;;;;;;0.13;69.60;100793.47;10581700;28;20050;-75
2022/03/12 10:40:42;;;;;;;13.95;7.35;;;;;;;0.01;70.67;100797.63;10567344;28;20040;-75
2022/03/12 10:45:50;;;;;;;13.30;7.47;;;;;;;0.05;70.77;100796.50;10552723;28;20503;-75
2022/03/12 10:50:51;;;;;;;11.90;7.45;;;;;;;-0.26;70.23;100740.00;10581290;28;20096;-75
2022/03/12 10:55:52;;;;;;;13.63;8.07;;;;;;;0.13;69.65;100746.44;10554183;28;20040;-76
2022/03/12 11:00:59;;;;;;;12.32;7.40;;;;;;;0.70;69.61;100808.38;10538454;28;20408;-76
2022/03/12 11:06:02;;;;;;;12.75;8.18;;;;;;;0.72;69.28;100765.50;10538751;28;20380;-76
2022/03/12 11:11:12;;;;;;;12.95;7.82;;;;;;;0.92;67.92;100798.25;10537945;28;20036;-76
2022/03/12 11:16:24;;;;;;;14.10;8.43;;;;;;;0.96;69.09;100804.13;10538001;28;20142;-76
2022/03/12 11:21:35;;;;;;;12.23;7.38;;;;;;;1.20;67.97;100818.34;10519493;28;20511;-77
2022/03/12 11:26:47;;;;;;;11.38;7.18;;;;;;;0.15;68.50;100676.63;10538489;28;20047;-76
2022/03/12 11:32:00;;;;;;;10.80;6.70;;;;;;;0.79;68.64;100773.81;10537934;28;20036;-77
2022/03/12 11:37:12;;;;;;;13.02;8.00;;;;;;;0.84;69.06;100805.75;10518984;28;20044;-77
2022/03/12 11:42:18;;;;;;;12.70;7.32;;;;;;;0.26;69.47;100723.03;10537809;28;20043;-77
2022/03/12 11:47:23;;;;;;;14.57;8.27;;;;;;;0.69;68.81;100836.31;10519672;28;20432;-77
2022/03/12 11:52:24;;;;;;;11.77;7.93;;;;;;;0.58;70.08;100815.19;10538162;28;20047;-76
2022/03/12 11:57:28;;;;;;;14.60;8.20;;;;;;;-0.18;68.71;100675.16;10536605;28;20048;-76
2022/03/12 12:02:31;;;;;;;11.90;7.32;;;;;;;0.24;69.49;100775.41;10536522;28;20043;-76
2022/03/12 12:07:35;;;;;;;13.68;8.05;;;;;;;-0.01;69.28;100737.63;10537225;28;20496;-76
2022/03/12 12:12:37;;;;;;;11.55;6.80;;;;;;;0.64;69.61;100856.66;10537272;28;20131;-76
2022/03/12 12:17:52;;;;;;;11.95;7.57;;;;;;;0.49;69.80;100852.34;10539229;28;20043;-76
2022/03/12 12:22:58;;;;;;;9.95;7.10;;;;;;;0.43;69.82;100862.22;10545093;28;20134;-76
2022/03/12 12:28:20;;;;;;;12.60;7.88;;;;;;;0.10;69.75;100783.19;10544242;28;20044;-77
2022/03/12 12:33:24;;;;;;;11.25;6.78;;;;;;;0.66;69.02;100858.25;10545180;28;20604;-76
2022/03/12 12:38:24;;;;;;;13.52;7.15;;;;;;;0.60;69.45;100852.50;10543639;28;20149;-76
2022/03/12 12:43:34;;;;;;;11.13;6.88;;;;;;;0.43;68.83;100815.16;10544197;28;20093;-76
2022/03/12 12:48:41;;;;;;;12.52;7.43;;;;;;;0.64;69.09;100872.34;10544584;28;20059;-77
2022/03/12 12:53:52;;;;;;;11.23;6.90;;;;;;;0.78;69.52;100858.41;10543997;28;20084;-76
2022/03/12 12:58:52;;;;;;;17.58;6.20;;;;;;;0.83;68.82;100864.22;10525664;28;20528;-76
2022/03/12 13:03:54;;;;;;;10.15;6.60;;;;;;;0.78;69.28;100877.59;10543329;28;20079;-76
2022/03/12 13:08:57;;;;;;;10.70;7.07;;;;;;;-0.24;69.03;100699.84;10542375;28;20476;-76
2022/03/12 13:14:01;;;;;;;10.93;7.45;;;;;;;0.08;68.10;100754.53;10543064;28;20115;-77
2022/03/12 13:19:01;;;;;;;10.10;6.70;;;;;;;-0.09;68.53;100712.91;10542725;28;20050;-77
2022/03/12 13:24:08;;;;;;;8.70;5.80;;;;;;;0.63;67.82;100819.22;10542412;28;20040;-77
2022/03/12 13:29:09;;;;;;;8.27;5.90;;;;;;;0.58;67.92;100831.72;10542516;28;20483;-76
2022/03/12 13:34:12;;;;;;;10.55;6.47;;;;;;;0.48;67.75;100777.44;10541804;28;20040;-76
2022/03/12 13:39:15;;;;;;;12.80;6.20;;;;;;;1.26;66.65;100893.84;10541732;28;20511;-77
2022/03/12 13:44:20;;;;;;;10.45;6.07;;;;;;;0.99;66.35;100887.66;10542497;28;20142;-78
2022/03/12 13:49:21;;;;;;;;;;;;;;;0.96;67.97;100893.06;10542230;28;20040;-77
2022/03/12 13:54:25;;;;;;;9.85;6.18;;;;;;;0.59;67.44;100890.06;10540735;28;20379;-76
2022/03/12 13:59:31;;;;;;;38.47;8.13;;;;;;;0.52;67.81;100907.88;10540689;28;20620;-77
2022/03/12 14:04:32;;;;;;;9.88;6.60;;;;;;;-1.05;68.29;100667.09;10523483;28;20066;-76
2022/03/12 14:09:34;;;;;;;12.55;6.55;;;;;;;0.10;68.57;100888.53;10540189;28;20047;-76
2022/03/12 14:14:35;;;;;;;9.60;6.43;;;;;;;-0.35;68.83;100834.53;10541390;28;20047;-76
2022/03/12 14:19:37;;;;;;;10.60;6.40;;;;;;;0.10;68.52;100908.59;10522849;28;20051;-76
2022/03/12 14:24:40;;;;;;;10.43;6.78;;;;;;;-0.19;69.66;100865.81;10522145;28;20044;-75
2022/03/12 14:29:43;;;;;;;9.80;5.85;;;;;;;-0.16;69.54;100883.94;10540160;28;20452;-76
2022/03/12 14:34:46;;;;;;;10.02;6.70;;;;;;;-0.30;69.65;100888.16;10521428;28;20523;-77
2022/03/12 14:39:49;;;;;;;9.90;6.47;;;;;;;-0.37;70.31;100893.81;10539049;28;20046;-76
2022/03/12 14:44:51;;;;;;;8.60;5.72;;;;;;;-0.35;70.76;100902.41;10538754;28;20064;-77
2022/03/12 14:49:54;;;;;;;9.43;6.50;;;;;;;-0.68;70.49;100868.53;10538670;28;20040;-76
2022/03/12 14:54:58;;;;;;;8.88;5.90;;;;;;;-0.40;71.24;100914.84;10521392;28;20085;-76
2022/03/12 14:59:59;;;;;;;13.32;6.90;;;;;;;-0.63;71.25;100883.00;10538345;28;20044;-77
2022/03/12 15:05:08;;;;;;;8.73;5.65;;;;;;;-0.84;71.03;100878.94;10538656;28;20043;-76
2022/03/12 15:10:18;;;;;;;9.05;5.35;;;;;;;-0.96;71.47;100865.66;10538435;28;20442;-76
2022/03/12 15:15:18;;;;;;;9.15;5.22;;;;;;;-0.51;71.94;100952.81;10537679;28;20122;-75
2022/03/12 15:20:23;;;;;;;11.48;6.22;;;;;;;-0.77;71.83;100922.88;10537458;28;20367;-76
2022/03/12 15:25:24;;;;;;;9.65;5.80;;;;;;;-1.22;71.72;100851.38;10515222;28;20043;-78
2022/03/12 15:30:33;;;;;;;9.07;5.93;;;;;;;-0.50;71.84;100977.16;10549786;28;20036;-77
2022/03/12 15:35:42;;;;;;;9.90;5.88;;;;;;;-0.53;72.08;101001.66;10540586;28;20039;-76
2022/03/12 15:40:44;;;;;;;9.35;5.93;;;;;;;-0.53;72.13;100998.19;10579175;28;20407;-76
2022/03/12 15:45:49;;;;;;;8.55;5.15;;;;;;;-0.77;72.40;100975.06;10579694;28;20051;-76
2022/03/12 15:50:50;;;;;;;7.78;5.00;;;;;;;-0.65;72.01;101025.78;10575683;28;20049;-76
2022/03/12 15:55:53;;;;;;;10.07;5.88;;;;;;;-0.78;72.08;101022.97;10561223;28;20046;-76
2022/03/12 16:00:55;;;;;;;9.70;5.75;;;;;;;-0.89;72.94;101027.03;10558474;28;20071;-76
2022/03/12 16:05:57;;;;;;;9.52;5.88;;;;;;;-1.87;72.14;100892.84;10542329;28;20482;-79
2022/03/12 16:10:59;;;;;;;9.10;5.75;;;;;;;-1.80;72.83;100942.88;10542280;28;20071;-83
2022/03/12 16:16:00;;;;;;;9.93;5.45;;;;;;;-1.47;73.46;101020.31;10563056;28;20167;-74
2022/03/12 16:21:02;;;;;;;13.75;7.00;;;;;;;-1.34;73.99;101041.44;10575236;28;20136;-79
2022/03/12 16:26:03;;;;;;;11.20;5.60;;;;;;;-1.39;74.25;101039.03;10585058;28;20032;-76
2022/03/12 16:31:04;;;;;;;9.82;5.68;;;;;;;-1.44;74.70;101048.84;10586680;28;20054;-76
2022/03/12 16:36:05;;;;;;;12.00;5.82;;;;;;;-1.78;74.96;101005.31;10586726;28;20043;-77
2022/03/12 16:41:06;;;;;;;12.75;6.13;;;;;;;-2.89;75.58;100850.88;10585930;28;20036;-76
2022/03/12 16:46:07;;;;;;;11.63;6.38;;;;;;;-1.72;75.85;101060.56;10586282;28;20063;-76
2022/03/12 16:51:08;;;;;;;12.93;6.85;;;;;;;-1.91;76.74;101025.91;10586851;28;20043;-76
2022/03/12 16:56:09;;;;;;;56.20;28.95;;;;;;;-2.17;76.88;100983.69;10586363;28;20380;-77
2022/03/12 17:01:10;;;;;;;42.08;22.38;;;;;;;-1.79;76.86;101061.78;10585159;28;20036;-75
2022/03/12 17:06:11;;;;;;;26.33;14.32;;;;;;;-2.15;77.52;101007.06;10584534;28;20040;-75
2022/03/12 17:11:13;;;;;;;49.10;27.02;;;;;;;-1.80;78.18;101087.88;10585345;28;20073;-75
2022/03/12 17:16:15;;;;;;;17.70;9.00;;;;;;;-2.48;77.75;100960.84;10585185;28;20403;-76
2022/03/12 17:21:15;;;;;;;15.88;8.13;;;;;;;-1.95;77.97;101063.41;10585089;28;20088;-76
2022/03/12 17:26:26;;;;;;;14.90;8.55;;;;;;;-2.16;78.88;101047.81;10585700;28;20048;-75
2022/03/12 17:31:27;;;;;;;16.30;10.75;;;;;;;-1.99;78.17;101070.50;10584338;28;20044;-75
2022/03/12 17:36:28;;;;;;;12.93;7.95;;;;;;;-2.62;78.54;100982.25;10584036;28;20047;-75
2022/03/12 17:41:29;;;;;;;13.40;7.72;;;;;;;-3.07;78.37;100923.56;10584071;28;20031;-75
2022/03/12 17:46:29;;;;;;;16.05;8.23;;;;;;;-3.75;77.87;100824.31;10584073;28;20051;-76
2022/03/12 17:51:31;;;;;;;15.45;7.32;;;;;;;-3.32;78.63;100905.59;10584689;28;20592;-76
2022/03/12 17:56:32;;;;;;;15.63;7.13;;;;;;;-3.14;78.59;100936.88;10583760;28;20035;-75
2022/03/12 18:01:33;;;;;;;9.45;6.10;;;;;;;-2.34;78.72;101088.53;10584038;28;20126;-76
2022/03/12 18:06:35;;;;;;;13.45;7.20;;;;;;;-2.41;78.48;101094.94;10582749;28;20051;-76
2022/03/12 18:11:36;;;;;;;15.43;7.47;;;;;;;-2.58;78.37;101095.66;10577508;28;20089;-76
2022/03/12 18:16:37;;;;;;;15.68;8.13;;;;;;;-2.80;78.62;101072.31;10549900;28;20530;-76
2022/03/12 18:21:38;;;;;;;14.05;8.32;;;;;;;-2.94;79.16;101085.03;10540967;28;20403;-76
2022/03/12 18:26:39;;;;;;;14.27;8.45;;;;;;;-3.24;78.57;101037.78;10539551;28;20043;-76
2022/03/12 18:31:43;;;;;;;17.38;8.07;;;;;;;-3.65;79.07;101008.25;10539909;28;20114;-85
2022/03/12 18:36:44;;;;;;;19.27;8.97;;;;;;;-3.58;79.99;101036.53;10557827;28;20122;-76
2022/03/12 18:41:45;;;;;;;17.30;8.90;;;;;;;-3.65;79.55;101037.66;10581087;28;20134;-76
2022/03/12 18:46:46;;;;;;;21.63;8.15;;;;;;;-3.57;79.62;101053.81;10570351;28;20471;-76
2022/03/12 18:51:47;;;;;;;15.07;7.22;;;;;;;-3.34;80.00;101104.84;10577228;28;20138;-76
2022/03/12 18:56:48;;;;;;;14.32;7.32;;;;;;;-3.62;80.00;101070.47;10578350;28;20398;-77
2022/03/12 19:01:49;;;;;;;15.68;7.72;;;;;;;-3.50;80.56;101106.34;10578871;28;20088;-75
2022/03/12 19:06:51;;;;;;;13.25;7.47;;;;;;;-3.81;80.33;101076.38;10578903;28;20035;-75
2022/03/12 19:11:55;;;;;;;13.75;7.13;;;;;;;-4.27;80.39;101034.00;10578864;28;20035;-75
2022/03/12 19:16:56;;;;;;;12.15;7.40;;;;;;;-3.94;80.56;101088.97;10567372;28;20043;-75
2022/03/12 19:21:58;;;;;;;19.05;8.18;;;;;;;-3.81;81.29;101091.09;10553258;28;20104;-74
2022/03/12 19:26:58;;;;;;;13.90;7.47;;;;;;;-3.44;81.13;101132.06;10580552;28;20138;-75
2022/03/12 19:31:59;;;;;;;14.00;7.55;;;;;;;-3.61;80.87;101121.53;10580279;28;20192;-75
2022/03/12 19:37:00;;;;;;;16.45;7.93;;;;;;;-3.51;81.29;101109.84;10560890;28;20044;-75
2022/03/12 19:42:01;;;;;;;20.88;13.65;;;;;;;-3.62;82.07;101065.28;10578180;28;20047;-75
2022/03/12 19:47:03;;;;;;;22.50;15.07;;;;;;;-3.07;82.26;101125.44;10577477;28;20051;-74
2022/03/12 19:52:06;;;;;;;26.45;14.77;;;;;;;-3.12;81.69;101107.44;10577780;28;20055;-74
2022/03/12 19:57:08;;;;;;;32.55;17.92;;;;;;;-3.03;82.07;101096.66;10577237;28;20043;-75
2022/03/12 20:02:09;;;;;;;29.98;13.60;;;;;;;-3.08;81.77;101072.63;10578134;28;20040;-75
2022/03/12 20:07:16;;;;;;;22.25;12.77;;;;;;;-2.87;80.75;101107.28;10572726;28;20035;-74
2022/03/12 20:12:17;;;;;;;21.05;11.40;;;;;;;-2.93;81.38;101106.69;10567066;28;20038;-76
2022/03/12 20:17:18;;;;;;;23.08;12.27;;;;;;;-2.78;82.46;101117.31;10576647;28;20089;-75
2022/03/12 20:22:19;;;;;;;21.88;11.15;;;;;;;-3.29;82.55;101003.31;10570987;28;20040;-74
2022/03/12 20:27:22;;;;;;;21.50;13.15;;;;;;;-2.72;81.60;101097.13;10545252;28;20040;-75
2022/03/12 20:32:23;;;;;;;28.85;13.85;;;;;;;-3.40;81.33;101003.78;10538042;28;20079;-74
2022/03/12 20:37:24;;;;;;;25.67;12.73;;;;;;;-2.84;81.85;101127.09;10536237;28;20067;-74
2022/03/12 20:42:25;;;;;;;25.45;12.40;;;;;;;-3.21;82.76;101038.47;10543742;28;20040;-74
2022/03/12 20:47:26;;;;;;;23.65;12.88;;;;;;;-2.87;82.47;101072.63;10543883;28;20079;-75
2022/03/12 20:52:27;;;;;;;25.10;13.63;;;;;;;-2.48;82.85;101122.13;10545057;28;20468;-74
2022/03/12 20:57:28;;;;;;;24.55;14.05;;;;;;;-2.46;82.25;101117.69;10543477;28;20407;-74
2022/03/12 21:02:29;;;;;;;21.48;12.82;;;;;;;-2.49;82.80;101106.56;10543683;28;20047;-75
2022/03/12 21:07:32;;;;;;;26.02;14.15;;;;;;;-2.73;82.48;101070.28;10543727;28;20126;-75
2022/03/12 21:12:32;;;;;;;25.05;13.85;;;;;;;-2.40;82.80;101113.97;10544159;28;20050;-74
2022/03/12 21:17:33;;;;;;;25.25;15.25;;;;;;;-3.22;82.89;100953.66;10542640;28;20048;-75
2022/03/12 21:22:34;;;;;;;23.48;15.25;;;;;;;-2.25;83.02;101117.69;10543795;28;20028;-75
2022/03/12 21:27:36;;;;;;;28.92;16.02;;;;;;;-2.20;82.67;101103.56;10542316;28;20097;-75
2022/03/12 21:32:38;;;;;;;25.58;15.55;;;;;;;-3.13;82.99;100939.44;10542259;28;20040;-75
2022/03/12 21:37:39;;;;;;;29.02;15.23;;;;;;;-2.21;83.06;101091.47;10542267;28;20475;-75
2022/03/12 21:42:42;;;;;;;27.60;13.68;;;;;;;-2.89;82.88;100963.50;10542077;28;20028;-75
2022/03/12 21:47:43;;;;;;;37.78;13.10;;;;;;;-2.18;82.23;101072.25;10542419;28;20063;-75
2022/03/12 21:52:44;;;;;;;32.53;13.07;;;;;;;-2.03;82.77;101089.78;10541835;28;20036;-75
2022/03/12 21:57:46;;;;;;;26.25;12.23;;;;;;;-2.65;82.60;100994.56;10541397;28;20048;-75
2022/03/12 22:02:46;;;;;;;23.20;12.18;;;;;;;-1.98;82.91;101105.19;10541528;28;20040;-75
2022/03/12 22:07:47;;;;;;;16.00;11.45;;;;;;;-2.58;82.26;100998.56;10540654;28;20044;-75
2022/03/12 22:12:49;;;;;;;21.77;10.43;;;;;;;-1.93;81.76;101106.69;10540484;28;20045;-75
2022/03/12 22:17:51;;;;;;;19.55;11.20;;;;;;;-1.91;81.88;101104.88;10541197;28;20051;-75
2022/03/12 22:22:57;;;;;;;17.35;11.07;;;;;;;-1.83;82.05;101113.16;10522708;28;20399;-75
2022/03/12 22:27:59;;;;;;;16.63;10.40;;;;;;;-2.12;81.81;101066.78;10539991;28;20066;-75
2022/03/12 22:33:02;;;;;;;22.33;11.40;;;;;;;-2.14;81.40;101072.03;10540826;28;20054;-75
2022/03/12 22:38:05;;;;;;;17.45;11.02;;;;;;;-2.12;81.29;101095.41;10539294;28;20040;-75
2022/03/12 22:43:07;;;;;;;30.15;11.98;;;;;;;-2.61;81.59;101014.31;10522723;28;20458;-75
2022/03/12 22:48:09;;;;;;;18.60;10.73;;;;;;;-2.01;81.64;101124.41;10540092;28;20063;-75
2022/03/12 22:53:09;;;;;;;19.77;11.98;;;;;;;-2.10;81.56;101130.84;10563858;28;20126;-75
2022/03/12 22:58:10;;;;;;;23.25;12.55;;;;;;;-1.95;81.38;101129.31;10581762;28;21157;-75